New Bedford Regional Airport New Bedford US
ICAO: KEWB
IATA: EWB
Category: Medium
Scheduled Services: Yes

Elevation: 80 ft
TransAlt. 18000 ft.

Airport Communications:
PROVIDENCE APP/DEP:128.7
ATIS:126.85
CTAF:118.1
GND:121.9
TWR:118.1
UNICOM:122.95

KEWB Zoom In..

If Map Doesn't Load, Click Here

Runways:

(A) RW 05 length 4997 ft width 150 ft
ILS 109.70 / hdg 54

(B) RW 14 length 5000 ft width 150 ft
---- / hdg 144

(C) RW 23 length 4997 ft width 150 ft
---- / hdg 234

(D) RW 32 length 5000 ft width 150 ft
---- / hdg 324

Location; KEWB
Day. 21 / Time. 14.53 Zulu
* Altimeter: 30.26
* Temperature: 19° c. 66.2°f.
* Wind from: 140° Speed 10 kn.
Dewpoint: 13° c.
Visibility: 10 Statute Miles.
Clouds: Few 3000 ft.

KEWB 211453Z 14010KT 10SM FEW030 19/13 A3026 RMK AO2 SLP247 T01940128 58014


Wind From 140°
Speed 10 kn.

 
 
jpsmedia.com for Web Design worldairports.se 2018   terms of use